Time;durP1;ratioP1;P1;durP2;ratioP2;P2;SDS_P1;SDS_P2;PMS_P1;PMS_P2;Temp;Humidity;BMP_temperature;BMP_pressure;BME280_temperature;BME280_humidity;BME280_pressure;Samples;Min_cycle;Max_cycle;Signal;HPM_P1;HPM_P2
2021/12/06 00:00:39;;;;;;;31.08;11.48;;;6.40;99.90;;;;;;4896670;29;20052;-67
2021/12/06 00:03:09;;;;;;;140.48;73.97;;;6.20;99.90;;;;;;4896382;29;20067;-67
2021/12/06 00:05:36;;;;;;;187.98;103.40;;;6.10;99.90;;;;;;4896533;29;20033;-67
2021/12/06 00:08:02;;;;;;;116.38;62.83;;;6.00;99.90;;;;;;4882745;29;20048;-67
2021/12/06 00:10:28;;;;;;;68.57;37.63;;;5.90;99.90;;;;;;4888872;29;20502;-67
2021/12/06 00:12:54;;;;;;;42.47;19.75;;;5.90;99.90;;;;;;4896135;29;20028;-66
2021/12/06 00:15:20;;;;;;;106.30;55.05;;;5.80;99.90;;;;;;4896163;29;20036;-67
2021/12/06 00:17:46;;;;;;;333.30;215.75;;;5.80;99.90;;;;;;4895905;29;20029;-67
2021/12/06 00:20:13;;;;;;;57.17;30.05;;;5.70;99.90;;;;;;4897693;29;20032;-67
2021/12/06 00:22:39;;;;;;;49.08;25.08;;;5.60;99.90;;;;;;4896051;29;20025;-67
2021/12/06 00:25:07;;;;;;;42.13;22.27;;;5.50;99.90;;;;;;4895736;29;20047;-66
2021/12/06 00:27:34;;;;;;;52.13;27.25;;;5.40;99.90;;;;;;4895915;29;20040;-67
2021/12/06 00:29:59;;;;;;;34.00;12.32;;;5.10;99.90;;;;;;4895840;29;20032;-66
2021/12/06 00:32:25;;;;;;;29.40;11.23;;;5.10;99.90;;;;;;4896309;29;20036;-67
2021/12/06 00:34:51;;;;;;;34.15;13.98;;;5.00;99.90;;;;;;4896589;29;20028;-67
2021/12/06 00:37:20;;;;;;;39.90;14.85;;;5.00;99.90;;;;;;4891599;29;20423;-67
2021/12/06 00:39:56;;;;;;;31.80;14.30;;;4.90;99.90;;;;;;4890916;29;20036;-67
2021/12/06 00:42:24;;;;;;;28.45;9.43;;;4.70;99.90;;;;;;4895858;29;20032;-67
2021/12/06 00:44:51;;;;;;;30.98;8.38;;;4.60;99.90;;;;;;4895819;29;20115;-67
2021/12/06 00:47:17;;;;;;;22.88;7.90;;;4.50;99.90;;;;;;4895580;29;20025;-67
2021/12/06 00:49:45;;;;;;;29.33;9.50;;;4.50;99.90;;;;;;4895621;29;20043;-67
2021/12/06 00:52:12;;;;;;;29.35;9.48;;;4.70;99.90;;;;;;4895478;29;20029;-66
2021/12/06 00:54:38;;;;;;;27.85;9.82;;;4.80;99.90;;;;;;4895211;29;20036;-67
2021/12/06 00:57:06;;;;;;;35.28;11.27;;;4.80;99.90;;;;;;4894223;29;20028;-67
2021/12/06 00:59:32;;;;;;;28.77;11.32;;;4.90;99.90;;;;;;4894126;29;20058;-67
2021/12/06 01:02:00;;;;;;;27.00;10.20;;;5.10;99.90;;;;;;4896681;29;20028;-67
2021/12/06 01:04:30;;;;;;;31.52;10.43;;;4.90;99.90;;;;;;4895502;29;20059;-67
2021/12/06 01:06:56;;;;;;;23.52;9.52;;;4.60;99.90;;;;;;4891462;29;20027;-66
2021/12/06 01:09:22;;;;;;;24.42;8.82;;;4.60;99.90;;;;;;4895049;29;20044;-67
2021/12/06 01:11:47;;;;;;;22.77;8.90;;;4.50;99.90;;;;;;4895724;29;20487;-67
2021/12/06 01:14:13;;;;;;;21.73;8.13;;;4.40;99.90;;;;;;4896750;29;20041;-67
2021/12/06 01:16:39;;;;;;;24.23;7.90;;;4.30;99.90;;;;;;4878261;29;20450;-66
2021/12/06 01:19:05;;;;;;;22.85;8.13;;;4.30;99.90;;;;;;4895011;29;20043;-67
2021/12/06 01:24:18;;;;;;;26.05;7.28;;;4.30;99.90;;;;;;4895311;29;20505;-67
2021/12/06 01:32:19;;;;;;;22.17;6.20;;;3.90;99.90;;;;;;4896240;29;20124;-66
2021/12/06 01:40:21;;;;;;;22.00;5.57;;;3.80;99.90;;;;;;4890968;29;20100;-67
2021/12/06 01:42:47;;;;;;;18.10;4.30;;;4.00;99.90;;;;;;4895149;29;20031;-67
2021/12/06 01:45:13;;;;;;;16.90;4.80;;;4.20;99.90;;;;;;4892189;29;20041;-66
2021/12/06 01:47:40;;;;;;;26.48;6.80;;;4.30;99.90;;;;;;4893897;29;20036;-67
2021/12/06 01:50:11;;;;;;;17.65;5.93;;;4.20;99.90;;;;;;4896291;29;20128;-67
2021/12/06 01:52:41;;;;;;;38.22;11.70;;;4.10;99.90;;;;;;4894617;29;20100;-67
2021/12/06 01:55:12;;;;;;;50.75;15.82;;;4.20;99.90;;;;;;4891005;29;20025;-66
2021/12/06 01:57:38;;;;;;;48.20;16.35;;;4.10;99.90;;;;;;4874402;29;20119;-66
2021/12/06 02:00:17;;;;;;;45.35;14.43;;;4.20;99.90;;;;;;4897573;29;20426;-67
2021/12/06 02:02:43;;;;;;;41.83;13.20;;;4.20;99.90;;;;;;4898342;29;20047;-66
2021/12/06 02:05:09;;;;;;;46.50;13.15;;;4.00;99.90;;;;;;4899779;29;20028;-66
2021/12/06 02:07:35;;;;;;;30.60;9.70;;;3.80;99.90;;;;;;4898366;29;20043;-66
2021/12/06 02:10:02;;;;;;;30.42;7.97;;;3.80;99.90;;;;;;4894052;29;20498;-66
2021/12/06 02:12:30;;;;;;;36.08;15.18;;;3.80;99.90;;;;;;4898195;29;20545;-66
2021/12/06 02:15:07;;;;;;;26.48;8.32;;;3.80;99.90;;;;;;4898575;29;20020;-66
2021/12/06 02:17:38;;;;;;;24.00;8.82;;;3.70;99.90;;;;;;4898702;29;20031;-67
2021/12/06 02:20:16;;;;;;;21.17;6.18;;;3.70;99.90;;;;;;4886304;29;20037;-67
2021/12/06 02:22:45;;;;;;;24.83;5.05;;;3.70;99.90;;;;;;4893681;29;20056;-67
2021/12/06 02:25:16;;;;;;;31.25;13.73;;;3.90;99.90;;;;;;4894034;29;20082;-66
2021/12/06 02:27:42;;;;;;;36.83;12.68;;;3.90;99.90;;;;;;4897859;29;20517;-67
2021/12/06 02:30:11;;;;;;;33.53;16.60;;;3.70;99.90;;;;;;4898361;29;20501;-66
2021/12/06 02:32:38;;;;;;;34.67;16.88;;;3.80;99.90;;;;;;4897984;29;20129;-67
2021/12/06 02:35:06;;;;;;;27.90;13.57;;;3.80;99.90;;;;;;4898894;29;20626;-66
2021/12/06 02:37:33;;;;;;;22.98;9.23;;;3.90;99.90;;;;;;4897735;29;20502;-66
2021/12/06 02:40:01;;;;;;;24.02;7.68;;;3.90;99.90;;;;;;4897734;29;20033;-66
2021/12/06 02:42:27;;;;;;;33.88;11.23;;;4.10;99.90;;;;;;4897583;29;20032;-66
2021/12/06 02:44:53;;;;;;;38.58;13.10;;;4.00;99.90;;;;;;4897761;29;20047;-67
2021/12/06 02:47:21;;;;;;;37.28;13.25;;;3.70;99.90;;;;;;4899069;29;20033;-67
2021/12/06 02:49:48;;;;;;;30.40;11.05;;;3.80;99.90;;;;;;4893931;29;20072;-66
2021/12/06 02:52:15;;;;;;;30.70;10.63;;;3.60;99.90;;;;;;4897905;29;20040;-65
2021/12/06 02:54:42;;;;;;;32.45;10.57;;;3.50;99.90;;;;;;4897539;29;20077;-66
2021/12/06 02:59:38;;;;;;;32.75;9.95;;;3.40;99.90;;;;;;4896153;29;20036;-67
2021/12/06 03:02:10;;;;;;;25.10;6.43;;;3.50;99.90;;;;;;4898918;29;20686;-66
2021/12/06 03:04:37;;;;;;;24.75;6.63;;;3.90;99.90;;;;;;4893130;29;20092;-66
2021/12/06 03:07:04;;;;;;;27.13;7.53;;;4.70;99.90;;;;;;4897333;29;20120;-66
2021/12/06 03:09:34;;;;;;;22.73;5.60;;;4.40;99.90;;;;;;4897129;29;20599;-67
2021/12/06 03:12:04;;;;;;;24.25;5.50;;;4.50;99.90;;;;;;4897385;29;20041;-66
2021/12/06 03:14:33;;;;;;;28.42;5.60;;;4.60;99.90;;;;;;4897336;29;20017;-66
2021/12/06 03:17:03;;;;;;;23.50;5.32;;;4.70;99.90;;;;;;4898479;29;20423;-67
2021/12/06 03:19:29;;;;;;;20.27;5.05;;;4.70;99.90;;;;;;4896542;29;20435;-67
2021/12/06 03:21:55;;;;;;;17.52;4.10;;;4.70;99.90;;;;;;4897201;29;20039;-66
2021/12/06 03:24:22;;;;;;;16.77;3.72;;;4.50;99.90;;;;;;4897508;29;20040;-67
2021/12/06 03:26:48;;;;;;;19.05;3.90;;;4.40;99.90;;;;;;4896997;29;20475;-67
2021/12/06 03:29:14;;;;;;;22.05;4.40;;;4.20;99.90;;;;;;4898050;29;20124;-67
2021/12/06 03:31:40;;;;;;;19.92;4.05;;;3.90;99.90;;;;;;4896867;29;20152;-66
2021/12/06 03:34:08;;;;;;;19.50;4.40;;;3.70;99.90;;;;;;4896830;29;20039;-67
2021/12/06 03:36:37;;;;;;;15.15;4.72;;;3.60;99.90;;;;;;4892898;29;20037;-67
2021/12/06 03:39:14;;;;;;;15.25;4.50;;;3.70;99.90;;;;;;4895531;29;20076;-66
2021/12/06 03:41:40;;;;;;;15.32;4.30;;;3.80;99.90;;;;;;4896002;29;20100;-67
2021/12/06 03:44:07;;;;;;;12.38;4.03;;;3.60;99.90;;;;;;4894250;29;20103;-67
2021/12/06 03:46:33;;;;;;;20.92;4.35;;;3.40;99.90;;;;;;4896450;29;20057;-66
2021/12/06 03:48:59;;;;;;;16.95;4.18;;;3.40;99.90;;;;;;4891907;29;20055;-67
2021/12/06 03:51:25;;;;;;;20.35;4.07;;;3.50;99.90;;;;;;4896519;29;20037;-67
2021/12/06 03:53:51;;;;;;;14.35;3.75;;;3.30;99.90;;;;;;4897058;29;20039;-65
2021/12/06 03:56:17;;;;;;;14.65;3.55;;;3.20;99.90;;;;;;4879168;29;20033;-67
2021/12/06 03:58:45;;;;;;;13.20;3.45;;;3.10;99.90;;;;;;4896265;29;20052;-67
2021/12/06 04:01:11;;;;;;;16.88;4.05;;;3.30;99.90;;;;;;4888993;29;20075;-66
2021/12/06 04:03:39;;;;;;;15.48;4.03;;;3.20;99.90;;;;;;4887703;29;20399;-67
2021/12/06 04:06:06;;;;;;;16.50;4.03;;;3.20;99.90;;;;;;4894598;29;20036;-66
2021/12/06 04:08:32;;;;;;;17.13;3.83;;;3.30;99.90;;;;;;4894256;29;20033;-66
2021/12/06 04:10:58;;;;;;;13.27;3.70;;;3.30;99.90;;;;;;4897187;29;20084;-67
2021/12/06 04:13:25;;;;;;;15.88;3.85;;;3.30;99.90;;;;;;4896155;29;20036;-66
2021/12/06 04:15:51;;;;;;;14.02;3.67;;;3.10;99.90;;;;;;4896048;29;20399;-67
2021/12/06 04:18:17;;;;;;;12.65;4.05;;;3.10;99.90;;;;;;4892884;29;20040;-67
2021/12/06 04:20:43;;;;;;;9.05;3.60;;;3.20;99.90;;;;;;4895451;29;20047;-66
2021/12/06 04:23:11;;;;;;;20.67;3.90;;;3.40;99.90;;;;;;4892725;29;20033;-66
2021/12/06 04:25:37;;;;;;;15.82;3.47;;;3.40;99.90;;;;;;4895880;29;20029;-67
2021/12/06 04:28:06;;;;;;;12.93;4.00;;;3.50;99.90;;;;;;4895552;29;20039;-67
2021/12/06 04:30:34;;;;;;;17.77;4.57;;;3.60;99.90;;;;;;4896127;29;20589;-66
2021/12/06 04:33:01;;;;;;;19.77;3.72;;;3.60;99.90;;;;;;4895343;29;20115;-66
2021/12/06 04:35:28;;;;;;;24.42;6.80;;;3.60;99.90;;;;;;4896157;29;20033;-67
2021/12/06 04:37:54;;;;;;;20.90;6.80;;;3.50;99.90;;;;;;4895858;29;20037;-66
2021/12/06 04:40:20;;;;;;;36.90;9.90;;;3.50;99.90;;;;;;4891477;29;20032;-66
2021/12/06 04:42:46;;;;;;;26.65;7.53;;;3.50;99.90;;;;;;4895699;29;20048;-66
2021/12/06 04:45:14;;;;;;;21.77;8.38;;;3.20;99.90;;;;;;4895270;29;20421;-67
2021/12/06 04:47:40;;;;;;;22.00;7.97;;;3.10;99.90;;;;;;4895687;29;20040;-67
2021/12/06 04:50:08;;;;;;;22.20;8.65;;;3.00;99.90;;;;;;4896704;29;20020;-67
2021/12/06 04:52:35;;;;;;;16.80;6.43;;;3.00;99.90;;;;;;4895286;29;20052;-67
2021/12/06 04:55:04;;;;;;;16.67;5.65;;;2.80;99.90;;;;;;4895465;29;20044;-67
2021/12/06 04:57:38;;;;;;;18.77;4.90;;;2.60;99.90;;;;;;4891668;29;20033;-67
2021/12/06 05:00:24;;;;;;;14.90;4.50;;;2.70;99.90;;;;;;4878312;29;20445;-67
2021/12/06 05:02:50;;;;;;;14.32;3.85;;;2.70;99.90;;;;;;4781430;29;20036;-67
2021/12/06 05:05:39;;;;;;;12.50;3.20;;;2.50;99.90;;;;;;4784905;30;20084;-67
2021/12/06 05:08:14;;;;;;;13.55;3.75;;;2.50;99.90;;;;;;4783451;30;20502;-68
2021/12/06 05:10:40;;;;;;;18.20;4.30;;;2.60;99.90;;;;;;4780887;30;20035;-66
2021/12/06 05:13:06;;;;;;;18.88;5.43;;;2.70;99.90;;;;;;4780918;30;20056;-67
2021/12/06 05:15:33;;;;;;;18.75;4.90;;;2.80;99.90;;;;;;4780548;30;20042;-67
2021/12/06 05:17:58;;;;;;;12.80;4.32;;;2.70;99.90;;;;;;4781154;30;20036;-68
2021/12/06 05:20:24;;;;;;;20.60;5.57;;;2.80;99.90;;;;;;4784041;30;20151;-67
2021/12/06 05:22:50;;;;;;;19.40;4.75;;;2.70;99.90;;;;;;4781736;30;20110;-67
2021/12/06 05:25:16;;;;;;;16.65;5.15;;;2.60;99.90;;;;;;4780403;30;20039;-66
2021/12/06 05:27:43;;;;;;;19.75;5.05;;;2.60;99.90;;;;;;4780767;30;20177;-67
2021/12/06 05:30:11;;;;;;;15.88;4.95;;;2.40;99.90;;;;;;4780516;30;20179;-67
2021/12/06 05:32:37;;;;;;;22.80;9.82;;;2.40;99.90;;;;;;4783259;30;20043;-67
2021/12/06 05:35:07;;;;;;;16.48;6.28;;;2.30;99.90;;;;;;4785168;30;20035;-67
2021/12/06 05:37:48;;;;;;;21.70;9.02;;;2.20;99.90;;;;;;4785477;30;20084;-66
2021/12/06 05:40:20;;;;;;;17.80;6.53;;;2.00;99.90;;;;;;4854570;29;20048;-67
2021/12/06 05:42:47;;;;;;;18.20;6.72;;;2.00;99.90;;;;;;4898956;29;20055;-67
2021/12/06 05:45:18;;;;;;;15.18;5.30;;;2.10;99.90;;;;;;4898545;29;20056;-67
2021/12/06 05:47:44;;;;;;;15.73;4.25;;;2.20;99.90;;;;;;4898739;29;20070;-66
2021/12/06 05:50:11;;;;;;;17.50;5.72;;;2.20;99.90;;;;;;4885436;29;20071;-66
2021/12/06 05:52:37;;;;;;;10.82;4.50;;;2.20;99.90;;;;;;4897517;29;20080;-66
2021/12/06 05:55:06;;;;;;;18.63;5.28;;;2.20;99.90;;;;;;4898495;29;20040;-67
2021/12/06 05:57:32;;;;;;;14.88;5.45;;;2.00;99.90;;;;;;4898425;29;20520;-67
2021/12/06 05:59:57;;;;;;;21.38;6.03;;;1.90;99.90;;;;;;4898278;29;20029;-67
2021/12/06 06:02:23;;;;;;;13.43;5.13;;;2.00;99.90;;;;;;4899134;29;20035;-67
2021/12/06 06:04:49;;;;;;;17.13;5.93;;;1.90;99.90;;;;;;4899181;29;20172;-67
2021/12/06 06:07:15;;;;;;;26.13;7.45;;;1.80;99.90;;;;;;4898266;29;20052;-67
2021/12/06 06:09:41;;;;;;;16.05;6.55;;;1.90;99.90;;;;;;4898485;29;20398;-67
2021/12/06 06:12:07;;;;;;;21.60;7.05;;;2.00;99.90;;;;;;4898735;29;20479;-67
2021/12/06 06:14:34;;;;;;;21.90;7.35;;;1.90;99.90;;;;;;4898604;29;20040;-67
2021/12/06 06:17:12;;;;;;;20.33;8.77;;;1.80;99.90;;;;;;4895348;29;20025;-67
2021/12/06 06:19:42;;;;;;;25.40;10.75;;;1.70;99.90;;;;;;4893913;29;20119;-67
2021/12/06 06:22:08;;;;;;;21.13;11.82;;;1.60;99.90;;;;;;4898201;29;20056;-66
2021/12/06 06:24:34;;;;;;;39.85;16.85;;;1.70;99.90;;;;;;4898003;29;20039;-67
2021/12/06 06:27:00;;;;;;;36.50;17.48;;;1.80;99.90;;;;;;4898283;29;20028;-67
2021/12/06 06:29:26;;;;;;;34.53;14.90;;;1.70;99.90;;;;;;4898006;29;20597;-67
2021/12/06 06:31:51;;;;;;;36.58;16.63;;;1.80;99.90;;;;;;4898955;29;20095;-65
2021/12/06 06:34:17;;;;;;;30.75;12.88;;;2.00;99.90;;;;;;4898146;29;20039;-66
2021/12/06 06:36:43;;;;;;;20.02;7.88;;;2.00;99.90;;;;;;4897483;29;20031;-65
2021/12/06 06:39:10;;;;;;;26.88;10.88;;;1.90;99.90;;;;;;4897367;29;20021;-67
2021/12/06 06:41:35;;;;;;;22.02;9.32;;;1.70;99.90;;;;;;4897012;29;20490;-64
2021/12/06 06:44:02;;;;;;;24.45;8.82;;;1.70;99.90;;;;;;4898241;29;20035;-66
2021/12/06 06:46:28;;;;;;;33.92;14.32;;;1.70;99.90;;;;;;4896309;29;20048;-66
2021/12/06 06:48:56;;;;;;;34.83;14.75;;;1.70;99.90;;;;;;4893186;29;20059;-66
2021/12/06 06:51:23;;;;;;;29.25;12.40;;;1.70;99.90;;;;;;4897468;29;20033;-66
2021/12/06 06:53:49;;;;;;;30.02;10.85;;;1.60;99.90;;;;;;4897606;29;20087;-66
2021/12/06 06:56:15;;;;;;;22.77;9.95;;;1.70;99.90;;;;;;4877767;29;20029;-66
2021/12/06 06:58:41;;;;;;;27.73;10.38;;;1.70;99.90;;;;;;4893307;29;20044;-66
2021/12/06 07:01:07;;;;;;;20.52;8.20;;;1.60;99.90;;;;;;4897142;29;20072;-66
2021/12/06 07:03:32;;;;;;;17.45;6.45;;;1.50;99.90;;;;;;4897498;29;20060;-66
2021/12/06 07:05:59;;;;;;;19.52;6.15;;;1.70;99.90;;;;;;4897501;29;20025;-66
2021/12/06 07:08:25;;;;;;;18.15;6.90;;;1.50;99.90;;;;;;4897977;29;20123;-66
2021/12/06 07:10:52;;;;;;;23.27;9.55;;;1.50;99.90;;;;;;4897819;29;20101;-66
2021/12/06 07:13:19;;;;;;;45.50;19.27;;;1.50;99.90;;;;;;4897084;29;20036;-66
2021/12/06 07:15:45;;;;;;;71.95;32.97;;;1.70;99.90;;;;;;4897252;29;20058;-67
2021/12/06 07:18:10;;;;;;;73.88;34.80;;;1.70;99.90;;;;;;4897283;29;20407;-67
2021/12/06 07:20:36;;;;;;;66.30;27.63;;;1.60;99.90;;;;;;4897251;29;20029;-66
2021/12/06 07:23:03;;;;;;;68.85;30.77;;;1.60;99.90;;;;;;4894099;29;20123;-66
2021/12/06 07:25:29;;;;;;;52.90;24.48;;;1.70;99.90;;;;;;4896458;29;20032;-65
2021/12/06 07:27:57;;;;;;;24.65;9.63;;;1.80;99.90;;;;;;4892898;29;20051;-66
2021/12/06 07:30:23;;;;;;;32.72;14.57;;;2.00;99.90;;;;;;4897349;29;20057;-66
2021/12/06 07:32:50;;;;;;;23.58;11.00;;;1.90;99.90;;;;;;4897382;29;20060;-66
2021/12/06 07:35:16;;;;;;;30.63;18.10;;;2.00;99.90;;;;;;4893890;29;20025;-67
2021/12/06 07:37:42;;;;;;;22.98;15.18;;;2.00;99.90;;;;;;4892806;29;20402;-66
2021/12/06 07:40:10;;;;;;;22.20;10.57;;;2.00;99.90;;;;;;4875759;29;20103;-66
2021/12/06 07:42:36;;;;;;;21.80;9.15;;;2.10;99.90;;;;;;4896888;29;20108;-66
2021/12/06 07:45:07;;;;;;;25.40;10.05;;;2.20;99.90;;;;;;4896765;29;20080;-65
2021/12/06 07:47:37;;;;;;;23.63;10.70;;;2.40;99.90;;;;;;4896872;29;20028;-66
2021/12/06 07:50:05;;;;;;;25.65;10.13;;;2.50;99.90;;;;;;4885297;29;20033;-66
2021/12/06 07:52:30;;;;;;;27.55;11.63;;;2.70;99.90;;;;;;4877696;29;20486;-65
2021/12/06 07:54:59;;;;;;;25.75;14.18;;;2.70;99.90;;;;;;4875292;29;20127;-66
2021/12/06 07:57:26;;;;;;;22.90;11.98;;;2.60;99.90;;;;;;4895363;29;20562;-65
2021/12/06 07:59:52;;;;;;;31.23;15.70;;;2.80;99.90;;;;;;4896724;29;20033;-65
2021/12/06 08:02:17;;;;;;;34.35;18.55;;;3.00;99.90;;;;;;4897746;29;20039;-65
2021/12/06 08:04:43;;;;;;;42.20;24.20;;;3.00;99.90;;;;;;4896611;29;20033;-65
2021/12/06 08:07:09;;;;;;;32.47;18.83;;;3.10;99.90;;;;;;4895985;29;20024;-65
2021/12/06 08:09:35;;;;;;;33.10;17.90;;;3.50;99.90;;;;;;4895559;29;20043;-64
2021/12/06 08:12:00;;;;;;;35.78;19.83;;;3.80;99.90;;;;;;4895546;29;20506;-63
2021/12/06 08:14:26;;;;;;;54.67;28.27;;;4.00;99.90;;;;;;4892964;29;20036;-65
2021/12/06 08:16:52;;;;;;;50.28;27.58;;;3.90;99.90;;;;;;4896690;29;20021;-65
2021/12/06 08:19:18;;;;;;;33.72;19.33;;;4.00;99.90;;;;;;4895655;29;20028;-65
2021/12/06 08:21:44;;;;;;;43.28;23.23;;;4.10;99.90;;;;;;4888244;29;20036;-65
2021/12/06 08:24:10;;;;;;;34.40;18.25;;;4.00;99.90;;;;;;4882516;29;20080;-65
2021/12/06 08:26:39;;;;;;;33.20;15.55;;;3.80;99.90;;;;;;4895711;29;20080;-65
2021/12/06 08:29:06;;;;;;;39.70;17.55;;;3.90;99.90;;;;;;4884203;29;20041;-65
2021/12/06 08:31:37;;;;;;;37.80;19.92;;;3.80;99.90;;;;;;4889975;29;20033;-65
2021/12/06 08:34:04;;;;;;;41.63;19.67;;;3.80;99.90;;;;;;4895689;29;20485;-65
2021/12/06 08:36:30;;;;;;;37.15;18.70;;;3.90;99.90;;;;;;4895685;29;20115;-65
2021/12/06 08:38:57;;;;;;;33.55;17.77;;;3.80;99.90;;;;;;4891371;29;20028;-65
2021/12/06 08:41:27;;;;;;;39.03;20.73;;;3.90;99.90;;;;;;4892838;29;20505;-65
2021/12/06 08:43:54;;;;;;;39.40;21.50;;;4.10;99.90;;;;;;4892613;29;20111;-65
2021/12/06 08:46:27;;;;;;;43.13;22.02;;;4.20;99.90;;;;;;4895469;29;20056;-66
2021/12/06 08:48:54;;;;;;;36.45;20.40;;;4.20;99.90;;;;;;4895551;29;20059;-65
2021/12/06 08:51:30;;;;;;;30.48;18.23;;;4.40;99.90;;;;;;4892387;29;20116;-65
2021/12/06 08:53:58;;;;;;;30.08;18.15;;;4.70;99.90;;;;;;4895459;29;20036;-66
2021/12/06 08:56:24;;;;;;;28.80;14.05;;;4.90;99.90;;;;;;4896069;29;20028;-65
2021/12/06 08:58:50;;;;;;;31.27;15.25;;;5.10;99.90;;;;;;4896655;29;20028;-66
2021/12/06 09:01:18;;;;;;;33.10;15.38;;;5.10;99.90;;;;;;4895465;29;20088;-66
2021/12/06 09:03:43;;;;;;;29.20;17.95;;;5.30;99.90;;;;;;4895286;29;20025;-65
2021/12/06 09:06:11;;;;;;;31.80;16.80;;;5.70;99.90;;;;;;4894367;29;20029;-66
2021/12/06 09:08:37;;;;;;;32.13;19.70;;;5.90;99.90;;;;;;4895460;29;20075;-65
2021/12/06 09:11:04;;;;;;;21.15;10.75;;;6.10;99.90;;;;;;4882017;29;20037;-67
2021/12/06 09:13:31;;;;;;;22.05;9.40;;;6.10;99.90;;;;;;4893061;29;20037;-65
2021/12/06 09:16:01;;;;;;;19.45;8.00;;;6.30;99.90;;;;;;4895066;29;20029;-64
2021/12/06 09:18:29;;;;;;;20.13;9.60;;;6.50;99.90;;;;;;4895677;29;20041;-65
2021/12/06 09:20:56;;;;;;;22.25;8.25;;;6.80;99.90;;;;;;4895134;29;20518;-65
2021/12/06 09:23:23;;;;;;;20.13;7.05;;;6.80;99.90;;;;;;4896579;29;20028;-66
2021/12/06 09:25:48;;;;;;;14.68;6.82;;;6.90;99.90;;;;;;4896053;29;20099;-65
2021/12/06 09:28:16;;;;;;;14.30;7.20;;;7.10;99.90;;;;;;4891095;29;20036;-66
2021/12/06 09:30:42;;;;;;;18.65;7.15;;;7.50;99.90;;;;;;4891251;29;20033;-66
2021/12/06 09:33:12;;;;;;;19.42;6.45;;;7.70;99.90;;;;;;4893523;29;20027;-66
2021/12/06 09:35:41;;;;;;;16.90;4.68;;;7.80;99.90;;;;;;4893546;29;20063;-66
2021/12/06 09:38:08;;;;;;;14.52;5.03;;;8.00;99.90;;;;;;4881769;29;20033;-66
2021/12/06 09:40:39;;;;;;;13.48;4.18;;;8.20;99.90;;;;;;4893278;29;20028;-65
2021/12/06 09:43:08;;;;;;;15.80;4.35;;;8.10;99.90;;;;;;4895403;29;20041;-66
2021/12/06 09:45:34;;;;;;;15.13;3.75;;;8.30;99.90;;;;;;4894933;29;20056;-66
2021/12/06 09:48:01;;;;;;;15.38;4.45;;;8.20;99.90;;;;;;4895087;29;20028;-65
2021/12/06 09:50:34;;;;;;;14.77;3.47;;;7.90;99.90;;;;;;4895157;29;20037;-66
2021/12/06 09:53:03;;;;;;;14.18;3.33;;;7.80;99.90;;;;;;4881548;29;20035;-66
2021/12/06 09:55:30;;;;;;;16.48;3.67;;;7.80;99.90;;;;;;4890380;29;20033;-65
2021/12/06 09:57:56;;;;;;;17.48;3.85;;;7.80;99.90;;;;;;4895390;29;20043;-66
2021/12/06 10:00:25;;;;;;;17.40;3.78;;;7.80;99.90;;;;;;4895256;29;20041;-66
2021/12/06 10:02:52;;;;;;;13.77;4.00;;;8.00;99.90;;;;;;4895023;29;20498;-66
2021/12/06 10:05:19;;;;;;;13.00;3.92;;;7.90;99.90;;;;;;4896034;29;20060;-65
2021/12/06 10:07:45;;;;;;;18.10;4.00;;;8.00;99.90;;;;;;4891092;29;20036;-66
2021/12/06 10:10:13;;;;;;;16.23;3.55;;;8.30;99.90;;;;;;4890938;29;20048;-66
2021/12/06 10:12:41;;;;;;;16.40;3.65;;;8.50;99.90;;;;;;4894805;29;20111;-66
2021/12/06 10:15:08;;;;;;;13.68;3.75;;;8.80;99.90;;;;;;4894738;29;20120;-65
2021/12/06 10:17:34;;;;;;;19.25;5.13;;;8.90;99.90;;;;;;4894940;29;20060;-66
2021/12/06 10:20:00;;;;;;;15.38;5.18;;;8.90;99.90;;;;;;4896338;29;20493;-65
2021/12/06 10:22:27;;;;;;;14.68;4.80;;;8.80;99.90;;;;;;4898162;29;20037;-66
2021/12/06 10:24:57;;;;;;;16.40;4.35;;;8.80;99.90;;;;;;4898211;29;20037;-66
2021/12/06 10:27:24;;;;;;;15.05;3.92;;;8.90;99.90;;;;;;4897942;29;20025;-66
2021/12/06 10:30:01;;;;;;;18.73;4.32;;;9.30;99.90;;;;;;4898443;29;20028;-66
2021/12/06 10:32:36;;;;;;;14.98;3.88;;;9.30;99.90;;;;;;4895492;29;20115;-65
2021/12/06 10:35:11;;;;;;;13.30;3.67;;;9.20;99.90;;;;;;4898431;29;20037;-65
2021/12/06 10:37:46;;;;;;;15.93;4.00;;;9.20;99.90;;;;;;4897844;29;20040;-66
2021/12/06 10:40:18;;;;;;;17.17;3.47;;;9.30;99.90;;;;;;4897856;29;20490;-66
2021/12/06 10:42:46;;;;;;;17.42;3.70;;;9.30;99.90;;;;;;4897884;29;20084;-66
2021/12/06 10:45:18;;;;;;;15.73;3.65;;;9.20;99.90;;;;;;4895679;29;20129;-66
2021/12/06 10:48:06;;;;;;;19.30;4.07;;;9.00;99.90;;;;;;4896738;29;20190;-65
2021/12/06 10:50:32;;;;;;;14.45;3.70;;;9.00;99.90;;;;;;4895366;29;20055;-66
2021/12/06 10:53:00;;;;;;;17.60;4.47;;;8.90;99.90;;;;;;4894817;29;20029;-66
2021/12/06 10:55:29;;;;;;;14.27;3.60;;;9.20;99.90;;;;;;4898063;29;20033;-66
2021/12/06 10:58:01;;;;;;;14.77;4.03;;;9.20;99.90;;;;;;4897240;29;20036;-65
2021/12/06 11:00:47;;;;;;;17.88;3.45;;;9.20;99.90;;;;;;4893491;29;20020;-66
2021/12/06 11:03:33;;;;;;;16.48;3.88;;;9.20;99.90;;;;;;4897380;29;20413;-66
2021/12/06 11:06:01;;;;;;;17.30;3.40;;;9.20;99.90;;;;;;4896766;29;20028;-66
2021/12/06 11:08:28;;;;;;;19.33;3.88;;;9.20;99.90;;;;;;4894830;29;20100;-66
2021/12/06 11:11:01;;;;;;;14.20;3.63;;;9.20;99.90;;;;;;4898118;29;20056;-66
2021/12/06 11:13:37;;;;;;;13.03;3.50;;;9.20;99.90;;;;;;4897116;29;20087;-66
2021/12/06 11:16:21;;;;;;;12.07;3.20;;;9.30;99.90;;;;;;4897267;29;20048;-66
2021/12/06 11:18:56;;;;;;;12.00;3.63;;;9.40;99.90;;;;;;4896739;29;20072;-66
2021/12/06 11:21:27;;;;;;;17.88;3.63;;;9.40;99.90;;;;;;4896821;29;20371;-66
2021/12/06 11:23:57;;;;;;;13.85;3.85;;;9.40;99.90;;;;;;4897846;29;20036;-65
2021/12/06 11:26:23;;;;;;;14.50;4.65;;;9.30;99.90;;;;;;4894272;29;20445;-66
2021/12/06 11:28:49;;;;;;;16.58;4.43;;;9.50;99.90;;;;;;4893172;29;20060;-64
2021/12/06 11:31:17;;;;;;;16.98;4.40;;;9.50;99.90;;;;;;4892446;29;20036;-66
2021/12/06 11:33:43;;;;;;;15.85;4.40;;;9.40;99.90;;;;;;4893087;29;20033;-66
2021/12/06 11:36:22;;;;;;;17.92;4.97;;;9.40;99.90;;;;;;4897085;29;20398;-65
2021/12/06 11:39:02;;;;;;;21.27;7.07;;;9.50;99.90;;;;;;4896872;29;20041;-66
2021/12/06 11:41:29;;;;;;;20.88;7.53;;;9.60;99.90;;;;;;4894111;29;20032;-65
2021/12/06 11:43:57;;;;;;;23.40;7.18;;;9.60;99.90;;;;;;4897623;29;20052;-64
2021/12/06 11:46:29;;;;;;;23.95;7.28;;;9.70;99.90;;;;;;4892077;29;20048;-65
2021/12/06 11:48:55;;;;;;;22.23;6.60;;;9.80;99.90;;;;;;4896527;29;20055;-65
2021/12/06 11:51:23;;;;;;;19.45;5.85;;;9.80;99.90;;;;;;4897044;29;20032;-65
2021/12/06 11:53:54;;;;;;;21.20;5.85;;;9.90;99.90;;;;;;4896572;29;20036;-64
2021/12/06 11:56:29;;;;;;;22.05;5.38;;;10.00;99.90;;;;;;4897745;29;20027;-65
2021/12/06 11:59:01;;;;;;;12.40;4.63;;;9.90;99.90;;;;;;4893092;29;20033;-64
2021/12/06 12:01:29;;;;;;;19.80;5.20;;;9.90;99.90;;;;;;4896039;29;20109;-65
2021/12/06 12:03:58;;;;;;;19.25;4.80;;;10.00;99.90;;;;;;4896782;29;20032;-64
2021/12/06 12:06:29;;;;;;;18.80;4.75;;;10.20;99.90;;;;;;4892958;29;20049;-64
2021/12/06 12:09:05;;;;;;;16.60;4.00;;;10.30;99.90;;;;;;4896385;29;20506;-64
2021/12/06 12:11:31;;;;;;;15.90;4.10;;;10.30;99.90;;;;;;4893929;29;20037;-65
2021/12/06 12:13:58;;;;;;;16.73;4.57;;;10.50;99.90;;;;;;4896363;29;20538;-65
2021/12/06 12:16:24;;;;;;;15.82;4.40;;;10.60;99.90;;;;;;4895685;29;20033;-65
2021/12/06 12:18:50;;;;;;;18.63;4.80;;;10.60;99.90;;;;;;4896134;29;20029;-65
2021/12/06 12:21:16;;;;;;;18.45;4.82;;;10.60;99.90;;;;;;4896154;29;20123;-65
2021/12/06 12:23:42;;;;;;;16.25;4.55;;;10.80;99.90;;;;;;4896506;29;20107;-65
2021/12/06 12:26:15;;;;;;;18.85;4.38;;;10.70;99.90;;;;;;4893049;29;20044;-66
2021/12/06 12:29:15;;;;;;;17.70;4.00;;;10.70;99.90;;;;;;4896035;29;20498;-65
2021/12/06 12:31:41;;;;;;;18.13;4.47;;;10.80;99.90;;;;;;4895857;29;20032;-66
2021/12/06 12:34:07;;;;;;;17.02;4.35;;;10.80;99.90;;;;;;4896024;29;20502;-65
2021/12/06 12:36:34;;;;;;;21.77;4.72;;;10.80;99.90;;;;;;4895378;29;20060;-65
2021/12/06 12:39:01;;;;;;;16.70;4.60;;;10.90;99.90;;;;;;4895632;29;20123;-66
2021/12/06 12:41:28;;;;;;;17.27;4.40;;;10.80;99.90;;;;;;4880197;29;20120;-66
2021/12/06 12:44:07;;;;;;;14.73;4.28;;;10.80;99.90;;;;;;4891633;29;20039;-66
2021/12/06 12:46:40;;;;;;;15.10;4.00;;;10.90;99.90;;;;;;4891505;29;20059;-66
2021/12/06 12:49:16;;;;;;;17.15;3.78;;;10.80;99.90;;;;;;4891894;29;20128;-65
2021/12/06 12:51:50;;;;;;;17.92;4.18;;;10.90;99.90;;;;;;4895216;29;20491;-66
2021/12/06 12:54:23;;;;;;;;;;;11.00;99.90;;;;;;4896072;29;20036;-66
2021/12/06 12:56:53;;;;;;;19.63;4.93;;;10.90;99.90;;;;;;4895418;29;19912;-64
2021/12/06 12:59:27;;;;;;;17.55;4.97;;;10.90;99.90;;;;;;4896178;29;20021;-67
2021/12/06 13:02:32;;;;;;;21.25;5.07;;;10.90;99.90;;;;;;4895832;29;20123;-66
2021/12/06 13:04:57;;;;;;;16.17;3.72;;;11.00;99.90;;;;;;4892391;29;20039;-65